Time;durP1;ratioP1;P1;durP2;ratioP2;P2;SDS_P1;SDS_P2;PMS_P1;PMS_P2;Temp;Humidity;BMP_temperature;BMP_pressure;BME280_temperature;BME280_humidity;BME280_pressure;Samples;Min_cycle;Max_cycle;Signal;HPM_P1;HPM_P2
2024/03/02 00:01:59;;;;;;;0.90;0.90;;;5.30;99.90;;;;;;5030693;28;20597;-76
2024/03/02 00:04:24;;;;;;;0.70;0.70;;;5.30;99.90;;;;;;5013869;28;20202;-77
2024/03/02 00:06:56;;;;;;;0.80;0.80;;;5.20;99.90;;;;;;5030615;28;20211;-76
2024/03/02 00:09:21;;;;;;;0.60;0.60;;;5.30;99.90;;;;;;5029996;28;20198;-75
2024/03/02 00:11:47;;;;;;;0.73;0.73;;;5.30;99.90;;;;;;5030643;28;20352;-75
2024/03/02 00:14:13;;;;;;;0.80;0.80;;;5.30;99.90;;;;;;5030530;28;20217;-77
2024/03/02 00:16:38;;;;;;;0.90;0.90;;;5.30;99.90;;;;;;5013897;28;20213;-76
2024/03/02 00:19:09;;;;;;;0.70;0.70;;;5.30;99.90;;;;;;5030454;28;20213;-77
2024/03/02 00:21:37;;;;;;;0.60;0.60;;;5.20;99.90;;;;;;5030314;28;20233;-77
2024/03/02 00:24:34;;;;;;;0.93;0.93;;;5.30;99.90;;;;;;5030463;28;20263;-77
2024/03/02 00:27:00;;;;;;;0.50;0.50;;;5.30;99.90;;;;;;5026428;28;20213;-76
2024/03/02 00:29:26;;;;;;;1.00;0.90;;;5.30;99.90;;;;;;5012678;28;20284;-76
2024/03/02 00:31:53;;;;;;;0.70;0.70;;;5.20;99.90;;;;;;4994324;28;20761;-76
2024/03/02 00:34:19;;;;;;;0.80;0.80;;;5.20;99.90;;;;;;5061124;28;20208;-77
2024/03/02 00:36:45;;;;;;;0.80;0.80;;;5.20;99.90;;;;;;5071123;28;20680;-77
2024/03/02 00:39:14;;;;;;;1.90;1.38;;;5.10;99.90;;;;;;5072641;28;20570;-76
2024/03/02 00:41:44;;;;;;;0.70;0.70;;;5.20;99.90;;;;;;5054187;28;20209;-77
2024/03/02 00:44:12;;;;;;;0.80;0.80;;;5.20;99.90;;;;;;5072384;28;20649;-78
2024/03/02 00:46:40;;;;;;;0.65;0.65;;;5.20;99.90;;;;;;5072135;28;20575;-76
2024/03/02 00:49:10;;;;;;;0.70;0.70;;;5.20;99.90;;;;;;5087806;28;20227;-76
2024/03/02 00:51:37;;;;;;;0.70;0.70;;;5.20;99.90;;;;;;5090113;28;20566;-77
2024/03/02 00:54:05;;;;;;;0.70;0.70;;;5.10;99.90;;;;;;5092381;28;20195;-76
2024/03/02 00:56:32;;;;;;;0.90;0.90;;;5.10;99.90;;;;;;5092195;28;20617;-75
2024/03/02 00:58:58;;;;;;;0.68;0.68;;;5.10;99.90;;;;;;5092274;28;20565;-76
2024/03/02 01:01:23;;;;;;;0.60;0.60;;;5.20;99.90;;;;;;5092175;28;20198;-75
2024/03/02 01:03:49;;;;;;;0.80;0.80;;;5.20;99.90;;;;;;5092338;28;20198;-76
2024/03/02 01:06:18;;;;;;;0.73;0.73;;;5.10;99.90;;;;;;5094972;28;20205;-76
2024/03/02 01:08:46;;;;;;;0.70;0.70;;;5.20;99.90;;;;;;5071927;28;20215;-76
2024/03/02 01:11:11;;;;;;;0.60;0.60;;;5.10;99.90;;;;;;5087580;28;20551;-76
2024/03/02 01:13:37;;;;;;;0.80;0.80;;;5.20;99.90;;;;;;5071994;28;20840;-76
2024/03/02 01:16:04;;;;;;;1.55;1.15;;;5.10;99.90;;;;;;5072110;28;20280;-75
2024/03/02 01:18:30;;;;;;;0.60;0.60;;;5.10;99.90;;;;;;5087326;28;20634;-76
2024/03/02 01:20:56;;;;;;;1.65;1.55;;;5.10;99.90;;;;;;5053887;28;20193;-76
2024/03/02 01:23:23;;;;;;;0.73;0.73;;;5.10;99.90;;;;;;5053817;28;20189;-76
2024/03/02 01:28:47;;;;;;;0.75;0.75;;;5.10;99.90;;;;;;5069031;28;20294;-77
2024/03/02 01:31:12;;;;;;;0.70;0.70;;;5.10;99.90;;;;;;5073850;28;20683;-77
2024/03/02 01:33:38;;;;;;;2.10;1.27;;;5.00;99.90;;;;;;5092065;28;20231;-76
2024/03/02 01:36:04;;;;;;;1.08;1.08;;;5.00;99.90;;;;;;5092238;28;20188;-76
2024/03/02 01:38:31;;;;;;;0.80;0.75;;;5.10;99.90;;;;;;5092097;28;20200;-76
2024/03/02 01:40:57;;;;;;;0.60;0.60;;;5.10;99.90;;;;;;5073824;28;20671;-76
2024/03/02 01:43:22;;;;;;;1.88;1.77;;;5.00;99.90;;;;;;5073588;28;20193;-76
2024/03/02 01:45:48;;;;;;;0.88;0.88;;;5.00;99.90;;;;;;5094167;28;20281;-75
2024/03/02 01:48:14;;;;;;;0.60;0.60;;;5.00;99.90;;;;;;5095617;28;20189;-76
2024/03/02 01:50:39;;;;;;;0.70;0.70;;;5.10;99.90;;;;;;5077197;28;20204;-76
2024/03/02 01:53:05;;;;;;;0.77;0.77;;;5.00;99.90;;;;;;5111217;28;20322;-76
2024/03/02 01:55:31;;;;;;;0.60;0.60;;;5.00;99.90;;;;;;5095254;28;20243;-76
2024/03/02 01:57:57;;;;;;;0.60;0.60;;;5.10;99.90;;;;;;5095467;28;20227;-75
2024/03/02 02:00:26;;;;;;;0.98;0.98;;;5.00;99.90;;;;;;5076747;28;20596;-75
2024/03/02 02:02:52;;;;;;;0.70;0.70;;;5.00;99.90;;;;;;5094683;28;20184;-76
2024/03/02 02:05:18;;;;;;;0.80;0.80;;;5.00;99.90;;;;;;5095216;28;20191;-77
2024/03/02 02:07:44;;;;;;;0.70;0.70;;;5.00;99.90;;;;;;5076813;28;20192;-77
2024/03/02 02:10:10;;;;;;;0.63;0.63;;;5.00;99.90;;;;;;5076748;28;20199;-76
2024/03/02 02:12:36;;;;;;;0.70;0.70;;;5.00;99.90;;;;;;5095042;28;20230;-77
2024/03/02 02:15:03;;;;;;;0.63;0.63;;;5.10;99.90;;;;;;5076867;28;20641;-76
2024/03/02 02:17:28;;;;;;;0.60;0.60;;;5.00;99.90;;;;;;5094746;28;20238;-76
2024/03/02 02:19:54;;;;;;;0.73;0.73;;;5.00;99.90;;;;;;5093929;28;20668;-76
2024/03/02 02:22:20;;;;;;;0.60;0.60;;;5.00;99.90;;;;;;5072790;28;20213;-75
2024/03/02 02:24:45;;;;;;;0.68;0.68;;;5.00;99.90;;;;;;5074336;28;20197;-75
2024/03/02 02:27:14;;;;;;;1.20;1.20;;;5.00;99.90;;;;;;5089409;28;20200;-76
2024/03/02 02:29:40;;;;;;;0.60;0.60;;;5.00;99.90;;;;;;5074451;28;20331;-77
2024/03/02 02:32:05;;;;;;;0.60;0.60;;;5.00;99.90;;;;;;5090185;28;20295;-76
2024/03/02 02:34:31;;;;;;;0.50;0.50;;;5.00;99.90;;;;;;5074362;28;20192;-76
2024/03/02 02:36:57;;;;;;;0.60;0.60;;;5.00;99.90;;;;;;5074351;28;20199;-76
2024/03/02 02:39:23;;;;;;;0.50;0.50;;;5.00;99.90;;;;;;5074488;28;20657;-76
2024/03/02 02:41:49;;;;;;;0.68;0.68;;;5.00;99.90;;;;;;5074286;28;20312;-74
2024/03/02 02:44:14;;;;;;;0.60;0.60;;;5.00;99.90;;;;;;5093370;28;20199;-75
2024/03/02 02:46:40;;;;;;;0.60;0.60;;;5.00;99.90;;;;;;5076294;28;20662;-71
2024/03/02 02:49:06;;;;;;;0.55;0.55;;;5.00;99.90;;;;;;5076250;28;20204;-72
2024/03/02 02:51:32;;;;;;;0.80;0.80;;;5.00;99.90;;;;;;5094275;28;20639;-72
2024/03/02 02:53:58;;;;;;;1.05;1.05;;;5.10;99.90;;;;;;5076268;28;20192;-72
2024/03/02 02:56:24;;;;;;;0.50;0.50;;;5.10;99.90;;;;;;5075153;28;20652;-72
2024/03/02 02:58:50;;;;;;;0.70;0.70;;;5.00;99.90;;;;;;5062389;28;20286;-71
2024/03/02 03:01:19;;;;;;;0.90;0.90;;;5.00;99.90;;;;;;5056001;28;20189;-72
2024/03/02 03:03:45;;;;;;;0.60;0.60;;;5.00;99.90;;;;;;5073872;28;20618;-72
2024/03/02 03:06:12;;;;;;;0.68;0.68;;;5.10;99.90;;;;;;5073699;28;20221;-73
2024/03/02 03:08:37;;;;;;;0.73;0.73;;;5.10;99.90;;;;;;5073618;28;20203;-72
2024/03/02 03:11:04;;;;;;;0.80;0.80;;;5.10;99.90;;;;;;5073718;28;20197;-72
2024/03/02 03:13:31;;;;;;;1.35;0.90;;;5.10;99.90;;;;;;5055569;28;20288;-72
2024/03/02 03:15:57;;;;;;;1.10;1.05;;;5.10;99.90;;;;;;5073602;28;20204;-72
2024/03/02 03:18:36;;;;;;;0.70;0.70;;;5.20;99.90;;;;;;5092648;28;20203;-72
2024/03/02 03:21:02;;;;;;;0.60;0.60;;;5.20;99.90;;;;;;5093641;28;20220;-73
2024/03/02 03:23:27;;;;;;;0.50;0.50;;;5.10;99.90;;;;;;5093559;28;20598;-72
2024/03/02 03:25:53;;;;;;;0.60;0.60;;;5.10;99.90;;;;;;5093663;28;20267;-72
2024/03/02 03:28:19;;;;;;;0.63;0.63;;;5.00;99.90;;;;;;5093492;28;20559;-73
2024/03/02 03:30:44;;;;;;;2.97;1.42;;;5.00;99.90;;;;;;5093529;28;20314;-73
2024/03/02 03:33:10;;;;;;;0.60;0.60;;;5.10;99.90;;;;;;5109310;28;20222;-72
2024/03/02 03:35:42;;;;;;;0.70;0.70;;;5.10;99.90;;;;;;5075157;28;20203;-73
2024/03/02 03:38:08;;;;;;;2.40;1.20;;;5.10;99.90;;;;;;5109124;28;20672;-72
2024/03/02 03:40:34;;;;;;;0.70;0.70;;;5.10;99.90;;;;;;5093080;28;20214;-72
2024/03/02 03:42:59;;;;;;;0.93;0.93;;;5.10;99.90;;;;;;5075236;28;20192;-73
2024/03/02 03:45:26;;;;;;;0.60;0.60;;;5.20;99.90;;;;;;5075092;28;20266;-73
2024/03/02 03:47:53;;;;;;;1.00;1.00;;;5.10;99.90;;;;;;5074956;28;20751;-73
2024/03/02 03:50:19;;;;;;;0.82;0.82;;;5.20;99.90;;;;;;5093126;28;20192;-74
2024/03/02 03:52:45;;;;;;;0.50;0.50;;;5.20;99.90;;;;;;5093589;28;20262;-73
2024/03/02 03:55:11;;;;;;;0.60;0.60;;;5.20;99.90;;;;;;5092583;28;20200;-71
2024/03/02 03:57:36;;;;;;;0.55;0.55;;;5.10;99.90;;;;;;5093126;28;20609;-74
2024/03/02 04:00:04;;;;;;;0.47;0.47;;;5.20;99.90;;;;;;5093081;28;20315;-74
2024/03/02 04:02:29;;;;;;;0.70;0.70;;;5.20;99.90;;;;;;5083521;28;20196;-73
2024/03/02 04:04:55;;;;;;;0.68;0.68;;;5.20;99.90;;;;;;5093170;28;20217;-74
2024/03/02 04:07:21;;;;;;;0.65;0.65;;;5.20;99.90;;;;;;5093199;28;20196;-75
2024/03/02 04:09:46;;;;;;;1.00;0.95;;;5.20;99.90;;;;;;5094063;28;20200;-75
2024/03/02 04:12:13;;;;;;;0.63;0.63;;;5.20;99.90;;;;;;5076015;28;20683;-75
2024/03/02 04:14:38;;;;;;;0.70;0.70;;;5.20;99.90;;;;;;5074558;28;20283;-75
2024/03/02 04:17:04;;;;;;;0.50;0.50;;;5.20;99.90;;;;;;5072695;28;20771;-75
2024/03/02 04:19:30;;;;;;;0.60;0.60;;;5.20;99.90;;;;;;5072451;28;20219;-74
2024/03/02 04:21:56;;;;;;;0.80;0.80;;;5.20;99.90;;;;;;5072457;28;20271;-74
2024/03/02 04:24:21;;;;;;;0.80;0.80;;;5.20;99.90;;;;;;5088168;28;20199;-74
2024/03/02 04:26:47;;;;;;;0.70;0.70;;;5.20;99.90;;;;;;5054394;28;20196;-74
2024/03/02 04:29:13;;;;;;;0.70;0.70;;;5.20;99.90;;;;;;5054417;28;20207;-74
2024/03/02 04:31:38;;;;;;;0.70;0.70;;;5.10;99.90;;;;;;5088005;28;20955;-74
2024/03/02 04:34:04;;;;;;;0.95;0.95;;;5.10;99.90;;;;;;5072470;28;20563;-74
2024/03/02 04:36:29;;;;;;;0.98;0.98;;;5.10;99.90;;;;;;5104891;28;20682;-73
2024/03/02 04:38:55;;;;;;;0.70;0.70;;;5.10;99.90;;;;;;5092963;28;20566;-74
2024/03/02 04:41:21;;;;;;;0.85;0.85;;;5.10;99.90;;;;;;5092281;28;20203;-74
2024/03/02 04:43:46;;;;;;;1.00;1.00;;;5.20;99.90;;;;;;5074556;28;20196;-74
2024/03/02 04:46:12;;;;;;;0.60;0.60;;;5.20;99.90;;;;;;5074377;28;20192;-74
2024/03/02 04:48:38;;;;;;;0.60;0.60;;;5.10;99.90;;;;;;5092387;28;20656;-74
2024/03/02 04:51:03;;;;;;;0.52;0.52;;;5.20;99.90;;;;;;5092131;28;20191;-74
2024/03/02 04:53:29;;;;;;;0.60;0.60;;;5.10;99.90;;;;;;5092530;28;20690;-75
2024/03/02 04:58:20;;;;;;;0.60;0.60;;;5.10;99.90;;;;;;5092539;28;20200;-75
2024/03/02 05:00:46;;;;;;;0.70;0.70;;;5.20;99.90;;;;;;5074229;28;20231;-75
2024/03/02 05:03:13;;;;;;;0.52;0.52;;;5.20;99.90;;;;;;5074168;28;20200;-74
2024/03/02 05:05:38;;;;;;;0.60;0.60;;;5.20;99.90;;;;;;5092369;28;20199;-71
2024/03/02 05:08:04;;;;;;;0.70;0.70;;;5.20;99.90;;;;;;5092371;28;20189;-71
2024/03/02 05:10:33;;;;;;;0.77;0.77;;;5.30;99.90;;;;;;5092176;28;20220;-71
2024/03/02 05:13:02;;;;;;;0.52;0.52;;;5.20;99.90;;;;;;5073808;28;20196;-71
2024/03/02 05:15:27;;;;;;;0.70;0.70;;;5.20;99.90;;;;;;5091983;28;20671;-71
2024/03/02 05:17:53;;;;;;;0.60;0.60;;;5.20;99.90;;;;;;5074269;28;20309;-71
2024/03/02 05:20:19;;;;;;;0.80;0.80;;;5.30;99.90;;;;;;5093529;28;20246;-72
2024/03/02 05:22:44;;;;;;;0.57;0.57;;;5.30;99.90;;;;;;5096403;28;20608;-71
2024/03/02 05:25:10;;;;;;;0.70;0.70;;;5.20;99.90;;;;;;5095956;28;20188;-71
2024/03/02 05:27:36;;;;;;;0.60;0.60;;;5.30;99.90;;;;;;5095696;28;20184;-71
2024/03/02 05:30:02;;;;;;;0.80;0.80;;;5.30;99.90;;;;;;5096006;28;20240;-72
2024/03/02 05:32:27;;;;;;;0.60;0.60;;;5.30;99.90;;;;;;5095656;28;20191;-71
2024/03/02 05:34:53;;;;;;;0.60;0.60;;;5.30;99.90;;;;;;5077725;28;20196;-72
2024/03/02 05:37:19;;;;;;;0.70;0.70;;;5.20;99.90;;;;;;5077435;28;20801;-72
2024/03/02 05:39:45;;;;;;;0.50;0.50;;;5.20;99.90;;;;;;5077606;28;20249;-71
2024/03/02 05:42:11;;;;;;;0.70;0.70;;;5.20;99.90;;;;;;5077399;28;20283;-73
2024/03/02 05:44:37;;;;;;;1.23;1.13;;;5.20;99.90;;;;;;5095611;28;20184;-71
2024/03/02 05:47:03;;;;;;;1.00;1.00;;;5.20;99.90;;;;;;5087780;28;20204;-71
2024/03/02 05:49:29;;;;;;;2.15;1.70;;;5.20;99.90;;;;;;5057557;28;20687;-72
2024/03/02 05:51:55;;;;;;;0.70;0.70;;;5.30;99.90;;;;;;5075401;28;20185;-71
2024/03/02 05:54:20;;;;;;;0.80;0.80;;;5.20;99.90;;;;;;5075076;28;20195;-71
2024/03/02 05:56:46;;;;;;;0.70;0.70;;;5.20;99.90;;;;;;5075304;28;20216;-72
2024/03/02 05:59:16;;;;;;;0.50;0.50;;;5.20;99.90;;;;;;5074890;28;20268;-71
2024/03/02 06:01:48;;;;;;;0.63;0.63;;;5.20;99.90;;;;;;5075276;28;20200;-71
2024/03/02 06:04:14;;;;;;;2.67;1.55;;;5.20;99.90;;;;;;5073713;28;20201;-71
2024/03/02 06:06:43;;;;;;;0.60;0.60;;;5.30;99.90;;;;;;5074833;28;20283;-70
2024/03/02 06:09:11;;;;;;;0.68;0.68;;;5.20;99.90;;;;;;5075013;28;20279;-70
2024/03/02 06:11:38;;;;;;;1.25;1.15;;;5.20;99.90;;;;;;5074833;28;20197;-71
2024/03/02 06:14:08;;;;;;;0.70;0.70;;;5.20;99.90;;;;;;5074848;28;20193;-71
2024/03/02 06:16:34;;;;;;;0.68;0.68;;;5.30;99.90;;;;;;5074801;28;20655;-72
2024/03/02 06:19:01;;;;;;;0.90;0.90;;;5.20;99.90;;;;;;5073471;28;20205;-72
2024/03/02 06:21:27;;;;;;;0.80;0.80;;;5.30;99.90;;;;;;5074447;28;20653;-73
2024/03/02 06:23:53;;;;;;;0.80;0.80;;;5.20;99.90;;;;;;5074787;28;20193;-72
2024/03/02 06:26:19;;;;;;;0.70;0.70;;;5.30;99.90;;;;;;5074679;28;20706;-72
2024/03/02 06:28:46;;;;;;;0.90;0.90;;;5.30;99.90;;;;;;5089595;28;20701;-72
2024/03/02 06:31:12;;;;;;;0.88;0.88;;;5.30;99.90;;;;;;5093804;28;20557;-72
2024/03/02 06:33:38;;;;;;;0.60;0.60;;;5.30;99.90;;;;;;5094520;28;20608;-73
2024/03/02 06:36:04;;;;;;;1.85;1.30;;;5.20;99.90;;;;;;5094748;28;20188;-73
2024/03/02 06:38:32;;;;;;;0.63;0.63;;;5.30;99.90;;;;;;5094754;28;20647;-73
2024/03/02 06:40:57;;;;;;;0.60;0.60;;;5.40;99.90;;;;;;5094494;28;20687;-73
2024/03/02 06:43:23;;;;;;;0.60;0.60;;;5.40;99.90;;;;;;5093983;28;20341;-73
2024/03/02 06:45:50;;;;;;;0.50;0.50;;;5.40;99.90;;;;;;5094555;28;20188;-72
2024/03/02 06:48:19;;;;;;;13.07;2.00;;;5.40;99.90;;;;;;5076300;28;20200;-72
2024/03/02 06:50:46;;;;;;;3.70;2.10;;;5.40;99.90;;;;;;5094505;28;20207;-72
2024/03/02 06:53:12;;;;;;;1.10;1.05;;;5.40;99.90;;;;;;5094364;28;20192;-73
2024/03/02 06:55:38;;;;;;;0.75;0.75;;;5.40;99.90;;;;;;5075961;28;20204;-72
2024/03/02 06:58:04;;;;;;;1.52;1.42;;;5.40;99.90;;;;;;5094338;28;20200;-73
2024/03/02 07:00:30;;;;;;;2.40;1.65;;;5.40;99.90;;;;;;5075737;28;20273;-73
2024/03/02 07:02:56;;;;;;;0.60;0.60;;;5.40;99.90;;;;;;5094176;28;20188;-73
2024/03/02 07:05:21;;;;;;;1.48;1.38;;;5.40;99.90;;;;;;5109520;28;20196;-73
2024/03/02 07:07:47;;;;;;;1.75;1.40;;;5.40;99.90;;;;;;5094118;28;20275;-73
2024/03/02 07:10:13;;;;;;;0.50;0.50;;;5.50;99.90;;;;;;5075877;28;20214;-73
2024/03/02 07:12:38;;;;;;;1.75;1.55;;;5.40;99.90;;;;;;5093868;28;20203;-73
2024/03/02 07:17:31;;;;;;;0.60;0.60;;;5.40;99.90;;;;;;5093728;28;20292;-73
2024/03/02 07:19:57;;;;;;;1.05;1.05;;;5.40;99.90;;;;;;5093737;28;20232;-73
2024/03/02 07:22:23;;;;;;;1.25;1.15;;;5.50;99.90;;;;;;5093563;28;20558;-73
2024/03/02 07:24:49;;;;;;;0.52;0.52;;;5.40;99.90;;;;;;5093569;28;20207;-72
2024/03/02 07:27:16;;;;;;;0.80;0.80;;;5.40;99.90;;;;;;5109604;28;20204;-74
2024/03/02 07:29:42;;;;;;;1.27;1.17;;;5.50;99.90;;;;;;5093598;28;20341;-72
2024/03/02 07:32:09;;;;;;;2.53;2.33;;;5.50;99.90;;;;;;5109398;28;20685;-72
2024/03/02 07:34:35;;;;;;;3.47;3.17;;;5.40;99.90;;;;;;5075288;28;20200;-73
2024/03/02 07:37:01;;;;;;;2.05;1.55;;;5.40;99.90;;;;;;5075289;28;20196;-72
2024/03/02 07:39:28;;;;;;;2.28;1.20;;;5.40;99.90;;;;;;5100627;28;20193;-72
2024/03/02 07:41:53;;;;;;;1.00;1.00;;;5.40;99.90;;;;;;5088764;28;20232;-72
2024/03/02 07:44:19;;;;;;;1.42;1.33;;;5.50;99.90;;;;;;5072662;28;20238;-72
2024/03/02 07:46:52;;;;;;;2.78;1.85;;;5.50;99.90;;;;;;5055416;28;20203;-73
2024/03/02 07:49:20;;;;;;;1.67;1.58;;;5.50;99.90;;;;;;5055180;28;20653;-72
2024/03/02 07:51:46;;;;;;;0.70;0.70;;;5.50;99.90;;;;;;5055203;28;20648;-72
2024/03/02 07:54:12;;;;;;;1.48;1.35;;;5.60;99.90;;;;;;5055048;28;20200;-72
2024/03/02 07:56:37;;;;;;;0.80;0.80;;;5.60;99.90;;;;;;5072779;28;20205;-72
2024/03/02 07:59:04;;;;;;;1.20;1.20;;;5.60;99.90;;;;;;5072664;28;20228;-72
2024/03/02 08:01:31;;;;;;;1.10;1.02;;;5.60;99.90;;;;;;5088164;28;20197;-73
2024/03/02 08:04:03;;;;;;;1.02;1.02;;;5.60;99.90;;;;;;5072788;28;20280;-72
2024/03/02 08:06:30;;;;;;;0.77;0.77;;;5.60;99.90;;;;;;5072451;28;20665;-72
2024/03/02 08:08:59;;;;;;;1.08;1.05;;;5.60;99.90;;;;;;5072676;28;20200;-73
2024/03/02 08:11:25;;;;;;;1.58;1.38;;;5.60;99.90;;;;;;5088170;28;20287;-71
2024/03/02 08:13:52;;;;;;;1.90;1.77;;;5.60;99.90;;;;;;5072738;28;20803;-71
2024/03/02 08:16:21;;;;;;;0.95;0.95;;;5.60;99.90;;;;;;5072526;28;20200;-72
2024/03/02 08:18:48;;;;;;;1.20;1.10;;;5.60;99.90;;;;;;5088128;28;20201;-72
2024/03/02 08:21:14;;;;;;;11.27;1.40;;;5.60;99.90;;;;;;5087252;28;20184;-73
2024/03/02 08:23:42;;;;;;;0.80;0.80;;;5.60;99.90;;;;;;5074464;28;20573;-72
2024/03/02 08:26:10;;;;;;;1.98;1.58;;;5.60;99.90;;;;;;5092626;28;20671;-72
2024/03/02 08:28:37;;;;;;;1.95;1.65;;;5.70;99.90;;;;;;5092423;28;20188;-71
2024/03/02 08:31:03;;;;;;;1.02;1.00;;;5.70;99.90;;;;;;5092707;28;20222;-71
2024/03/02 08:33:32;;;;;;;0.90;0.90;;;5.70;99.90;;;;;;5092456;28;20246;-72
2024/03/02 08:35:57;;;;;;;1.30;1.20;;;5.70;99.90;;;;;;5092266;28;20196;-70
2024/03/02 08:38:23;;;;;;;0.65;0.65;;;5.70;99.90;;;;;;5074243;28;20758;-70
2024/03/02 08:40:50;;;;;;;2.47;1.40;;;5.70;99.90;;;;;;5092462;28;20218;-69
2024/03/02 08:43:15;;;;;;;1.67;1.55;;;5.70;99.90;;;;;;5092518;28;20192;-70
2024/03/02 08:45:41;;;;;;;1.35;1.27;;;5.70;99.90;;;;;;5092326;28;20194;-70
2024/03/02 08:48:10;;;;;;;1.27;0.98;;;5.70;99.90;;;;;;5092628;28;20271;-70
2024/03/02 08:50:36;;;;;;;0.90;0.90;;;5.70;99.90;;;;;;5108030;28;20200;-70
2024/03/02 08:53:05;;;;;;;1.95;1.52;;;5.70;99.90;;;;;;5092530;28;20192;-70
2024/03/02 08:55:31;;;;;;;0.80;0.80;;;5.70;99.90;;;;;;5076141;28;20200;-70
2024/03/02 08:57:57;;;;;;;0.75;0.75;;;5.70;99.90;;;;;;5096444;28;20603;-70
2024/03/02 09:00:23;;;;;;;0.90;0.90;;;5.70;99.90;;;;;;5096092;28;20220;-70
2024/03/02 09:02:49;;;;;;;0.80;0.80;;;5.70;99.90;;;;;;5096101;28;20643;-72
2024/03/02 09:05:15;;;;;;;0.70;0.70;;;5.70;99.90;;;;;;5078121;28;20199;-72
2024/03/02 09:07:40;;;;;;;0.95;0.95;;;5.70;99.90;;;;;;5096193;28;20196;-71
2024/03/02 09:10:07;;;;;;;0.77;0.77;;;5.70;99.90;;;;;;5078058;28;20664;-72
2024/03/02 09:12:33;;;;;;;0.80;0.80;;;5.70;99.90;;;;;;5096042;28;20202;-70
2024/03/02 09:15:00;;;;;;;2.15;1.95;;;5.70;99.90;;;;;;5111912;28;20200;-71
2024/03/02 09:17:25;;;;;;;1.55;1.17;;;5.80;99.90;;;;;;5077705;28;20242;-70
2024/03/02 09:19:52;;;;;;;3.80;1.73;;;5.80;99.90;;;;;;5095947;28;20215;-71
2024/03/02 09:22:19;;;;;;;0.93;0.93;;;5.90;99.90;;;;;;5096006;28;20212;-71
2024/03/02 09:24:44;;;;;;;0.65;0.65;;;5.90;99.90;;;;;;5096077;28;20606;-72
2024/03/02 09:27:10;;;;;;;0.70;0.70;;;5.80;99.90;;;;;;5095892;28;20292;-73
2024/03/02 09:29:36;;;;;;;3.13;1.45;;;5.90;99.90;;;;;;5095889;28;20606;-73
2024/03/02 09:32:02;;;;;;;0.70;0.70;;;6.00;99.90;;;;;;5068689;28;20197;-75
2024/03/02 09:34:27;;;;;;;0.70;0.70;;;5.90;99.90;;;;;;5074150;28;20252;-76
2024/03/02 09:36:53;;;;;;;0.70;0.70;;;5.90;99.90;;;;;;5075566;28;20613;-74
2024/03/02 09:39:19;;;;;;;0.88;0.88;;;5.90;99.90;;;;;;5075860;28;20213;-77
2024/03/02 09:41:45;;;;;;;1.02;1.02;;;5.90;99.90;;;;;;5075499;28;20193;-72
2024/03/02 09:44:10;;;;;;;0.88;0.88;;;5.90;99.90;;;;;;5075295;28;20208;-74
2024/03/02 09:46:36;;;;;;;0.60;0.60;;;5.90;99.90;;;;;;5057218;28;20192;-72
2024/03/02 09:49:02;;;;;;;3.03;2.30;;;5.90;99.90;;;;;;5091005;28;20224;-74
2024/03/02 09:51:28;;;;;;;1.40;1.30;;;5.90;99.90;;;;;;5075176;28;20604;-73
2024/03/02 09:53:55;;;;;;;3.33;2.65;;;6.00;99.90;;;;;;5073999;28;20258;-74
2024/03/02 09:56:24;;;;;;;2.60;2.08;;;6.00;99.90;;;;;;5074993;28;20668;-75
2024/03/02 09:58:49;;;;;;;0.90;0.90;;;6.00;99.90;;;;;;5073716;28;20228;-73
2024/03/02 10:01:15;;;;;;;0.80;0.80;;;6.00;99.90;;;;;;5075101;28;20215;-72
2024/03/02 10:03:44;;;;;;;0.60;0.60;;;5.90;99.90;;;;;;5074950;28;20192;-73
2024/03/02 10:06:22;;;;;;;1.30;1.15;;;5.90;99.90;;;;;;5073573;28;20196;-76
2024/03/02 10:08:48;;;;;;;0.93;0.93;;;5.90;99.90;;;;;;5074924;28;20601;-74
2024/03/02 10:11:36;;;;;;;1.25;1.15;;;5.90;99.90;;;;;;5075003;28;20812;-73
2024/03/02 10:14:09;;;;;;;1.67;1.05;;;6.00;99.90;;;;;;5074250;28;20196;-74
2024/03/02 10:16:44;;;;;;;1.67;1.33;;;6.00;99.90;;;;;;5094931;28;20266;-74
2024/03/02 10:19:32;;;;;;;0.57;0.57;;;6.00;99.90;;;;;;5110664;28;20200;-75
2024/03/02 10:21:58;;;;;;;0.90;0.90;;;6.00;99.90;;;;;;5095007;28;20187;-74
2024/03/02 10:24:25;;;;;;;0.50;0.50;;;6.00;99.90;;;;;;5076677;28;20729;-74
2024/03/02 10:26:52;;;;;;;0.60;0.60;;;6.00;99.90;;;;;;5076803;28;20675;-74
2024/03/02 10:29:18;;;;;;;0.60;0.60;;;6.00;99.90;;;;;;5078568;28;20727;-74
2024/03/02 10:31:45;;;;;;;0.75;0.75;;;6.00;99.90;;;;;;5073592;28;20201;-75
2024/03/02 10:34:12;;;;;;;1.75;1.65;;;6.00;99.90;;;;;;5074464;28;20661;-73
2024/03/02 10:36:41;;;;;;;1.98;1.85;;;6.00;99.90;;;;;;5056684;28;20205;-73
2024/03/02 10:39:07;;;;;;;0.88;0.88;;;5.90;99.90;;;;;;5074739;28;20207;-75
2024/03/02 10:41:38;;;;;;;0.70;0.70;;;5.90;99.90;;;;;;5089859;28;20687;-75
2024/03/02 10:44:06;;;;;;;1.25;1.15;;;5.90;99.90;;;;;;5074301;28;20206;-75
2024/03/02 10:46:33;;;;;;;0.80;0.80;;;5.90;99.90;;;;;;5074150;28;20299;-76
2024/03/02 10:49:04;;;;;;;0.52;0.52;;;5.80;99.90;;;;;;5074120;28;20189;-76
2024/03/02 10:51:32;;;;;;;1.10;1.02;;;5.80;99.90;;;;;;5074052;28;20197;-76
2024/03/02 10:54:01;;;;;;;0.70;0.70;;;5.80;99.90;;;;;;5074166;28;20205;-74
2024/03/02 10:56:40;;;;;;;1.00;1.00;;;5.80;99.90;;;;;;5056005;28;20226;-78
2024/03/02 10:59:30;;;;;;;0.70;0.70;;;5.80;99.90;;;;;;5074212;28;20692;-78
2024/03/02 11:02:01;;;;;;;0.68;0.68;;;5.70;99.90;;;;;;5073965;28;20239;-77
2024/03/02 11:04:28;;;;;;;0.70;0.70;;;5.80;99.90;;;;;;5073817;28;20192;-77
2024/03/02 11:07:10;;;;;;;0.93;0.93;;;5.70;99.90;;;;;;5072445;28;20193;-75
2024/03/02 11:09:40;;;;;;;1.77;1.30;;;5.80;99.90;;;;;;5084927;28;20223;-75
2024/03/02 11:12:12;;;;;;;0.65;0.65;;;5.80;99.90;;;;;;5093687;28;20199;-76
2024/03/02 11:14:44;;;;;;;1.13;1.05;;;5.80;99.90;;;;;;5093593;28;20672;-75
2024/03/02 11:17:13;;;;;;;0.95;0.93;;;5.80;99.90;;;;;;5093184;28;20453;-75
2024/03/02 11:19:40;;;;;;;0.80;0.80;;;5.80;99.90;;;;;;5093064;28;20216;-74
2024/03/02 11:22:06;;;;;;;0.60;0.60;;;5.80;99.90;;;;;;5109261;28;20331;-74
2024/03/02 11:24:33;;;;;;;0.70;0.70;;;5.70;99.90;;;;;;5091586;28;20193;-74
2024/03/02 11:27:05;;;;;;;0.63;0.63;;;5.70;99.90;;;;;;5109045;28;20295;-74
2024/03/02 11:29:40;;;;;;;1.02;1.02;;;5.80;99.90;;;;;;5093062;28;20192;-74
2024/03/02 11:32:13;;;;;;;0.80;0.80;;;5.80;99.90;;;;;;5093226;28;20223;-74
2024/03/02 11:34:45;;;;;;;0.93;0.85;;;5.80;99.90;;;;;;5093095;28;20188;-74
2024/03/02 11:37:11;;;;;;;0.80;0.80;;;5.80;99.90;;;;;;5109299;28;20204;-75
2024/03/02 11:39:41;;;;;;;2.15;1.38;;;5.90;99.90;;;;;;5093228;28;20268;-74
2024/03/02 11:42:09;;;;;;;0.70;0.70;;;5.90;99.90;;;;;;5074843;28;20241;-74
2024/03/02 11:44:36;;;;;;;0.85;0.85;;;5.80;99.90;;;;;;5092923;28;20207;-74
2024/03/02 11:47:05;;;;;;;3.33;1.65;;;5.90;99.90;;;;;;5093001;28;20180;-73
2024/03/02 11:49:41;;;;;;;1.35;1.25;;;5.90;99.90;;;;;;5092894;28;20206;-73
2024/03/02 11:52:09;;;;;;;0.60;0.60;;;5.80;99.90;;;;;;5092912;28;20188;-75
2024/03/02 11:54:40;;;;;;;0.50;0.50;;;5.80;99.90;;;;;;5074832;28;20200;-73
2024/03/02 11:57:07;;;;;;;0.80;0.80;;;5.80;99.90;;;;;;5092882;28;20203;-73
2024/03/02 11:59:33;;;;;;;0.95;0.93;;;5.80;99.90;;;;;;5074229;28;20239;-74
2024/03/02 12:01:59;;;;;;;1.00;1.00;;;5.80;99.90;;;;;;5092892;28;20582;-74
2024/03/02 12:04:26;;;;;;;0.60;0.60;;;5.80;99.90;;;;;;5092402;28;20184;-75
2024/03/02 12:07:01;;;;;;;0.68;0.68;;;5.80;99.90;;;;;;5092576;28;20192;-72
2024/03/02 12:09:30;;;;;;;1.15;1.05;;;5.80;99.90;;;;;;5074295;28;20660;-72
2024/03/02 12:12:22;;;;;;;0.60;0.60;;;5.80;99.90;;;;;;5092577;28;20271;-72
2024/03/02 12:14:52;;;;;;;0.80;0.80;;;5.80;99.90;;;;;;5089745;28;20717;-72
2024/03/02 12:17:18;;;;;;;0.73;0.73;;;5.80;99.90;;;;;;5108163;28;20203;-72
2024/03/02 12:19:45;;;;;;;0.60;0.60;;;5.80;99.90;;;;;;5092273;28;20203;-71
2024/03/02 12:22:12;;;;;;;0.60;0.60;;;5.80;99.90;;;;;;5091149;28;20188;-71
2024/03/02 12:24:38;;;;;;;1.20;1.10;;;5.80;99.90;;;;;;5074118;28;20544;-71
2024/03/02 12:27:05;;;;;;;0.82;0.82;;;5.80;99.90;;;;;;5092375;28;20605;-71
2024/03/02 12:29:31;;;;;;;0.90;0.90;;;5.70;99.90;;;;;;5106867;28;20290;-70
2024/03/02 12:31:56;;;;;;;0.70;0.70;;;5.70;99.90;;;;;;5092350;28;20263;-71
2024/03/02 12:34:23;;;;;;;0.90;0.90;;;5.70;99.90;;;;;;5092209;28;20248;-71
2024/03/02 12:36:52;;;;;;;0.80;0.80;;;5.70;99.90;;;;;;5092259;28;20230;-71
2024/03/02 12:39:19;;;;;;;1.00;1.00;;;5.70;99.90;;;;;;5092120;28;20489;-70
2024/03/02 12:41:46;;;;;;;0.82;0.82;;;5.60;99.90;;;;;;5092201;28;20253;-70
2024/03/02 12:44:12;;;;;;;0.70;0.70;;;5.60;99.90;;;;;;5074111;28;20227;-71
2024/03/02 12:46:38;;;;;;;0.60;0.60;;;5.60;99.90;;;;;;5091966;28;20216;-69
2024/03/02 12:49:12;;;;;;;1.75;1.20;;;5.60;99.90;;;;;;5092424;28;20709;-69
2024/03/02 12:51:40;;;;;;;1.35;1.25;;;5.70;99.90;;;;;;5073867;28;20200;-70
2024/03/02 12:54:07;;;;;;;0.80;0.80;;;5.70;99.90;;;;;;5092024;28;20302;-70
2024/03/02 12:56:33;;;;;;;0.60;0.60;;;5.60;99.90;;;;;;5107647;28;20204;-70
2024/03/02 12:58:59;;;;;;;0.68;0.68;;;5.60;99.90;;;;;;5073821;28;20252;-71
2024/03/02 13:01:25;;;;;;;1.50;1.40;;;5.60;99.90;;;;;;5073374;28;20530;-71
2024/03/02 13:03:52;;;;;;;0.60;0.60;;;5.60;99.90;;;;;;5091975;28;20249;-71
2024/03/02 13:06:19;;;;;;;0.82;0.82;;;5.60;99.90;;;;;;5091835;28;20192;-71